Terminal Aerodrome Forecast
Issued by NWS Duluth, MN

Home | Current Version | Previous Version | Text Only | Print | Product List | Glossary On
Versions: 1 2 3 4 5 6 7 8 9 10 11 12 13 14 15 16 17 18 19 20 21 22 23 24 25 26 27 28 29
403
FTUS43 KDLH 281723
TAFDLH
TAF
KDLH 281723Z 2818/2918 VRB05KT 1/2SM -DZ FG VCSH OVC002
      TEMPO 2818/2822 4SM -DZ OVC007
     FM282200 VRB05KT 4SM -DZ BR VCSH OVC007
     FM290200 VRB02KT 1/2SM -DZ FG OVC002
     FM291400 29011KT P6SM BKN006 OVC018=

USA.gov is the U.S. government's official web portal to all federal, state and local government web resources and services.